createdAt,value
2023-04-22T00:00:43.015Z,75.38
2023-04-22T00:03:10.378Z,74.90
2023-04-22T00:05:38.155Z,74.32
2023-04-22T00:08:04.942Z,74.38
2023-04-22T00:10:31.561Z,73.53
2023-04-22T00:12:58.366Z,73.24
2023-04-22T00:15:26.825Z,73.47
2023-04-22T00:17:54.007Z,73.63
2023-04-22T00:20:22.147Z,73.29
2023-04-22T00:22:48.861Z,73.33
2023-04-22T00:25:16.538Z,72.79
2023-04-22T00:27:43.363Z,73.58
2023-04-22T00:30:10.627Z,73.74
2023-04-22T00:32:38.333Z,73.66
2023-04-22T00:35:05.735Z,73.17
2023-04-22T00:37:32.419Z,73.21
2023-04-22T00:39:59.243Z,73.97
2023-04-22T00:42:26.516Z,73.55
2023-04-22T00:44:53.776Z,73.25
2023-04-22T00:47:21.309Z,74.09
2023-04-22T00:49:50.222Z,73.64
2023-04-22T00:52:17.503Z,73.62
2023-04-22T00:54:44.654Z,73.41
2023-04-22T00:57:11.545Z,74.14
2023-04-22T00:59:38.915Z,73.70
2023-04-22T01:02:05.959Z,74.36
2023-04-22T01:04:32.909Z,74.00
2023-04-22T01:07:01.730Z,74.01
2023-04-22T01:09:28.659Z,74.53
2023-04-22T01:11:56.515Z,74.41
2023-04-22T01:14:24.767Z,75.00
2023-04-22T01:16:55.993Z,75.25
2023-04-22T01:19:23.899Z,74.79
2023-04-22T01:21:52.135Z,75.44
2023-04-22T01:24:19.282Z,75.16
2023-04-22T01:26:46.860Z,75.62
2023-04-22T01:29:14.735Z,75.49
2023-04-22T01:31:42.946Z,75.39
2023-04-22T01:34:09.982Z,75.67
2023-04-22T01:36:36.729Z,76.07
2023-04-22T01:39:03.476Z,76.51
2023-04-22T01:41:30.760Z,76.57
2023-04-22T01:43:58.454Z,77.04
2023-04-22T01:46:25.329Z,76.97
2023-04-22T01:48:52.165Z,77.32
2023-04-22T01:51:22.148Z,77.28
2023-04-22T01:53:49.294Z,77.49
2023-04-22T01:56:16.430Z,77.33
2023-04-22T01:58:43.812Z,77.45
2023-04-22T02:01:12.003Z,78.71
2023-04-22T02:03:38.948Z,78.27
2023-04-22T02:06:05.790Z,78.50
2023-04-22T02:08:32.418Z,78.30
2023-04-22T02:11:00.963Z,78.84
2023-04-22T02:13:35.488Z,78.62
2023-04-22T02:16:02.283Z,78.58
2023-04-22T02:18:28.916Z,79.14
2023-04-22T02:20:55.620Z,79.33
2023-04-22T02:23:22.532Z,78.67
2023-04-22T02:25:53.198Z,78.74
2023-04-22T02:28:20.045Z,78.90
2023-04-22T02:30:46.970Z,79.62
2023-04-22T02:33:13.662Z,79.14
2023-04-22T02:35:40.390Z,79.63
2023-04-22T02:38:07.133Z,80.23
2023-04-22T02:40:33.795Z,80.20
2023-04-22T02:43:00.601Z,79.74
2023-04-22T02:45:27.284Z,79.21
2023-04-22T02:47:53.954Z,79.66
2023-04-22T02:50:21.085Z,79.59
2023-04-22T02:52:47.779Z,79.58
2023-04-22T02:55:14.724Z,79.40
2023-04-22T02:57:41.392Z,79.84
2023-04-22T03:00:08.885Z,80.26
2023-04-22T03:02:35.723Z,80.14
2023-04-22T03:05:02.919Z,80.66
2023-04-22T03:07:29.652Z,80.49
2023-04-22T03:09:56.317Z,80.37
2023-04-22T03:12:22.898Z,80.76
2023-04-22T03:14:49.515Z,80.27
2023-04-22T03:17:16.248Z,80.07
2023-04-22T03:19:43.123Z,79.50
2023-04-22T03:22:09.890Z,79.68
2023-04-22T03:24:36.559Z,80.12
2023-04-22T03:27:04.174Z,80.09
2023-04-22T03:29:30.897Z,80.04
2023-04-22T03:31:57.547Z,80.72
2023-04-22T03:34:24.219Z,80.57
2023-04-22T03:36:50.975Z,80.99
2023-04-22T03:39:17.776Z,81.54
2023-04-22T03:41:44.417Z,81.65
2023-04-22T03:44:11.068Z,81.28
2023-04-22T03:46:37.756Z,81.76
2023-04-22T03:49:04.838Z,81.18
2023-04-22T03:51:32.026Z,80.94
2023-04-22T03:53:58.709Z,80.86
2023-04-22T03:56:25.677Z,79.90
2023-04-22T03:58:52.359Z,79.32
2023-04-22T04:01:19.361Z,79.36
2023-04-22T04:03:46.275Z,79.82
2023-04-22T04:06:13.104Z,79.58
2023-04-22T04:08:39.775Z,80.04
2023-04-22T04:11:06.443Z,79.99
2023-04-22T04:13:33.430Z,80.39
2023-04-22T04:16:00.486Z,80.64
2023-04-22T04:18:27.869Z,79.93
2023-04-22T04:20:54.572Z,79.52
2023-04-22T04:23:21.273Z,79.36
2023-04-22T04:25:48.113Z,79.27
2023-04-22T04:28:14.826Z,79.77
2023-04-22T04:30:41.950Z,79.08
2023-04-22T04:33:08.684Z,78.55
2023-04-22T04:35:36.514Z,78.27
2023-04-22T04:38:06.397Z,77.58
2023-04-22T04:40:34.882Z,77.65
2023-04-22T04:43:02.811Z,76.69
2023-04-22T04:45:30.363Z,76.90
2023-04-22T04:47:57.183Z,76.28
2023-04-22T04:50:24.187Z,76.69
2023-04-22T04:52:52.552Z,75.80
2023-04-22T04:55:19.776Z,76.46
2023-04-22T04:57:46.878Z,75.37
2023-04-22T05:00:16.940Z,75.35
2023-04-22T05:02:43.790Z,74.73
2023-04-22T05:05:11.132Z,74.80
2023-04-22T05:07:38.055Z,74.36
2023-04-22T05:10:05.170Z,74.64
2023-04-22T05:12:32.041Z,73.70
2023-04-22T05:14:58.777Z,73.73
2023-04-22T05:17:25.977Z,72.69
2023-04-22T05:19:52.738Z,72.63
2023-04-22T05:22:19.804Z,71.85
2023-04-22T05:24:46.676Z,72.19
2023-04-22T05:27:13.358Z,72.56
2023-04-22T05:29:40.481Z,71.79
2023-04-22T05:32:08.563Z,71.66
2023-04-22T05:34:36.185Z,71.45
2023-04-22T05:37:04.162Z,70.89
2023-04-22T05:39:31.105Z,69.60
2023-04-22T05:41:57.942Z,69.71
2023-04-22T05:44:24.841Z,69.29
2023-04-22T05:46:51.884Z,70.20
2023-04-22T05:49:18.626Z,71.17
2023-04-22T05:51:46.352Z,70.06
2023-04-22T05:54:13.229Z,70.29
2023-04-22T05:56:39.940Z,68.59
2023-04-22T05:59:06.640Z,69.03
2023-04-22T06:01:33.622Z,68.79
2023-04-22T06:04:00.620Z,68.43
2023-04-22T06:06:27.793Z,67.23
2023-04-22T06:08:54.476Z,66.81
2023-04-22T06:11:21.261Z,67.17
2023-04-22T06:13:48.037Z,66.58
2023-04-22T06:16:14.843Z,65.72
2023-04-22T06:18:43.681Z,64.93
2023-04-22T06:21:10.832Z,65.97
2023-04-22T06:23:37.616Z,65.20
2023-04-22T06:26:04.805Z,65.18
2023-04-22T06:28:31.633Z,63.95
2023-04-22T06:30:58.317Z,63.82
2023-04-22T06:33:25.056Z,63.89
2023-04-22T06:35:51.822Z,64.41
2023-04-22T06:38:18.668Z,63.90
2023-04-22T06:40:45.443Z,64.29
2023-04-22T06:43:12.110Z,64.75
2023-04-22T06:45:38.819Z,64.12
2023-04-22T06:48:05.451Z,64.05
2023-04-22T06:50:32.191Z,64.15
2023-04-22T06:52:58.991Z,63.64
2023-04-22T06:55:25.782Z,62.79
2023-04-22T06:57:52.412Z,62.14
2023-04-22T07:00:19.431Z,61.37
2023-04-22T07:02:46.194Z,61.53
2023-04-22T07:05:12.938Z,61.83
2023-04-22T07:07:39.821Z,60.69
2023-04-22T07:10:07.155Z,59.45
2023-04-22T07:12:33.913Z,59.82
2023-04-22T07:15:00.614Z,60.06
2023-04-22T07:17:27.224Z,59.25
2023-04-22T07:19:53.915Z,59.95
2023-04-22T07:22:21.077Z,61.85
2023-04-22T07:24:47.934Z,62.00
2023-04-22T07:27:14.941Z,60.37
2023-04-22T07:29:41.886Z,60.77
2023-04-22T07:32:09.491Z,61.04
2023-04-22T07:34:36.305Z,61.13
2023-04-22T07:37:03.258Z,61.26
2023-04-22T07:39:29.974Z,61.72
2023-04-22T07:41:57.122Z,59.61
2023-04-22T07:44:23.895Z,59.78
2023-04-22T07:46:50.629Z,59.41
2023-04-22T07:49:17.650Z,58.96
2023-04-22T07:51:45.290Z,57.86
2023-04-22T07:54:12.370Z,59.88
2023-04-22T07:56:42.126Z,57.60
2023-04-22T07:59:09.317Z,58.32
2023-04-22T08:01:36.175Z,56.38
2023-04-22T08:04:03.978Z,55.80
2023-04-22T08:06:33.399Z,55.31
2023-04-22T08:09:00.524Z,53.87
2023-04-22T08:11:27.855Z,53.62
2023-04-22T08:13:54.763Z,53.58
2023-04-22T08:16:21.682Z,52.52
2023-04-22T08:18:48.511Z,52.79
2023-04-22T08:21:15.655Z,51.93
2023-04-22T08:23:42.493Z,51.71
2023-04-22T08:26:12.430Z,50.38
2023-04-22T08:28:39.152Z,52.02
2023-04-22T08:31:06.981Z,52.66
2023-04-22T08:33:33.917Z,51.04
2023-04-22T08:36:00.876Z,51.98
2023-04-22T08:38:27.719Z,50.57
2023-04-22T08:40:56.910Z,52.02
2023-04-22T08:43:27.127Z,51.87
2023-04-22T08:45:53.989Z,50.38
2023-04-22T08:48:20.649Z,50.43
2023-04-22T08:50:48.507Z,50.09
2023-04-22T08:53:15.228Z,51.71
2023-04-22T08:55:45.280Z,50.09
2023-04-22T08:58:13.046Z,51.08
2023-04-22T09:00:43.651Z,49.67
2023-04-22T09:03:11.181Z,49.13
2023-04-22T09:05:40.528Z,49.10
2023-04-22T09:08:08.267Z,48.51
2023-04-22T09:10:38.683Z,48.82
2023-04-22T09:13:07.121Z,49.38
2023-04-22T09:15:34.129Z,49.79
2023-04-22T09:18:04.016Z,49.42
2023-04-22T09:20:31.283Z,49.38
2023-04-22T09:23:04.474Z,49.76
2023-04-22T09:25:34.934Z,49.86
2023-04-22T09:28:02.269Z,49.49
2023-04-22T09:30:34.096Z,49.50
2023-04-22T09:33:03.287Z,49.12
2023-04-22T09:35:35.896Z,48.02
2023-04-22T09:38:05.039Z,48.46
2023-04-22T09:40:32.350Z,47.33
2023-04-22T09:43:01.125Z,47.13
2023-04-22T09:45:30.605Z,48.24
2023-04-22T09:48:01.175Z,48.90
2023-04-22T09:50:29.270Z,47.36
2023-04-22T09:53:01.980Z,46.25
2023-04-22T09:55:31.194Z,47.64
2023-04-22T09:57:58.681Z,46.96
2023-04-22T10:00:30.861Z,46.60
2023-04-22T10:02:57.769Z,46.66
2023-04-22T10:05:25.498Z,45.81
2023-04-22T10:07:53.105Z,46.64
2023-04-22T10:10:20.131Z,46.40
2023-04-22T10:12:48.206Z,46.71
2023-04-22T10:15:14.999Z,45.51
2023-04-22T10:17:43.760Z,44.77
2023-04-22T10:20:16.262Z,44.80
2023-04-22T10:22:43.657Z,45.62
2023-04-22T10:25:28.799Z,44.66
2023-04-22T10:28:06.454Z,44.72
2023-04-22T10:30:35.482Z,44.48
2023-04-22T10:33:20.980Z,43.97
2023-04-22T10:36:06.531Z,44.81
2023-04-22T10:38:37.427Z,43.54
2023-04-22T10:41:04.691Z,44.53
2023-04-22T10:43:48.311Z,44.40
2023-04-22T10:46:50.526Z,44.85
2023-04-22T10:49:22.620Z,43.48
2023-04-22T10:51:54.271Z,44.02
2023-04-22T10:54:32.510Z,44.36
2023-04-22T10:57:11.002Z,43.90
2023-04-22T10:59:56.271Z,43.63
2023-04-22T11:02:24.087Z,43.75
2023-04-22T11:04:54.603Z,43.73
2023-04-22T11:07:23.074Z,43.27
2023-04-22T11:09:51.980Z,43.11
2023-04-22T11:12:39.921Z,42.41
2023-04-22T11:15:18.700Z,43.11
2023-04-22T11:17:48.280Z,43.19
2023-04-22T11:20:19.245Z,42.84
2023-04-22T11:22:52.091Z,41.19
2023-04-22T11:25:19.618Z,42.64
2023-04-22T11:27:46.476Z,38.43
2023-04-22T11:30:15.323Z,39.79
2023-04-22T11:32:44.897Z,40.84
2023-04-22T11:35:20.764Z,40.70
2023-04-22T11:38:10.171Z,41.09
2023-04-22T11:40:45.699Z,42.02
2023-04-22T11:43:13.431Z,40.72
2023-04-22T11:45:40.662Z,39.96
2023-04-22T11:48:09.006Z,42.03
2023-04-22T11:50:38.064Z,40.96
2023-04-22T11:53:13.447Z,41.58
2023-04-22T11:55:41.343Z,39.82
2023-04-22T11:58:13.265Z,39.64
2023-04-22T12:00:46.945Z,41.54
2023-04-22T12:03:27.591Z,39.66
2023-04-22T12:05:57.905Z,40.74
2023-04-22T12:08:27.282Z,41.25
2023-04-22T12:10:57.316Z,39.66
2023-04-22T12:13:26.522Z,39.73
2023-04-22T12:15:56.343Z,40.97
2023-04-22T12:18:30.859Z,39.36
2023-04-22T12:21:01.800Z,40.54
2023-04-22T12:23:28.809Z,40.66
2023-04-22T12:25:55.775Z,41.72
2023-04-22T12:28:22.678Z,41.00
2023-04-22T12:30:49.471Z,42.03
2023-04-22T12:33:16.189Z,40.27
2023-04-22T12:35:43.334Z,38.25
2023-04-22T12:38:09.908Z,38.51
2023-04-22T12:40:36.537Z,40.27
2023-04-22T12:43:06.170Z,40.10
2023-04-22T12:45:33.040Z,38.90
2023-04-22T12:48:00.159Z,39.34
2023-04-22T12:50:27.011Z,39.65
2023-04-22T12:52:53.897Z,41.02
2023-04-22T12:55:21.468Z,42.02
2023-04-22T12:57:51.110Z,39.78
2023-04-22T13:00:18.934Z,38.89
2023-04-22T13:02:48.024Z,40.38
2023-04-22T13:05:16.125Z,40.63
2023-04-22T13:07:43.498Z,39.83
2023-04-22T13:10:12.669Z,40.48
2023-04-22T13:12:40.222Z,39.33
2023-04-22T13:15:07.864Z,39.36
2023-04-22T13:17:35.330Z,40.55
2023-04-22T13:20:02.567Z,40.80
2023-04-22T13:22:29.359Z,39.87
2023-04-22T13:24:56.114Z,41.12
2023-04-22T13:27:22.905Z,41.18
2023-04-22T13:29:49.703Z,41.12
2023-04-22T13:32:16.540Z,41.32
2023-04-22T13:34:43.382Z,43.32
2023-04-22T13:37:10.223Z,41.79
2023-04-22T13:39:37.072Z,43.69
2023-04-22T13:42:04.196Z,40.78
2023-04-22T13:44:30.929Z,43.12
2023-04-22T13:46:57.901Z,40.86
2023-04-22T13:49:26.436Z,41.95
2023-04-22T13:51:53.881Z,40.71
2023-04-22T13:54:20.957Z,41.99
2023-04-22T13:56:47.993Z,41.95
2023-04-22T13:59:14.769Z,41.02
2023-04-22T14:01:41.851Z,42.64
2023-04-22T14:04:08.758Z,43.11
2023-04-22T14:06:35.468Z,40.74
2023-04-22T14:09:04.558Z,40.81
2023-04-22T14:11:32.139Z,41.80
2023-04-22T14:13:59.059Z,40.28
2023-04-22T14:16:26.020Z,42.16
2023-04-22T14:18:53.179Z,42.10
2023-04-22T14:21:19.909Z,41.97
2023-04-22T14:23:46.758Z,41.59
2023-04-22T14:26:13.518Z,41.96
2023-04-22T14:28:43.871Z,43.01
2023-04-22T14:31:10.800Z,43.31
2023-04-22T14:33:37.647Z,42.35
2023-04-22T14:36:04.689Z,41.57
2023-04-22T14:38:31.503Z,43.71
2023-04-22T14:40:58.532Z,44.42
2023-04-22T14:43:25.314Z,44.46
2023-04-22T14:45:52.051Z,44.26
2023-04-22T14:48:18.858Z,43.03
2023-04-22T14:50:45.713Z,42.68
2023-04-22T14:53:12.600Z,42.51
2023-04-22T14:55:39.392Z,42.82
2023-04-22T14:58:06.454Z,44.02
2023-04-22T15:00:33.398Z,44.05
2023-04-22T15:03:00.501Z,44.37
2023-04-22T15:05:27.319Z,44.04
2023-04-22T15:07:54.348Z,43.58
2023-04-22T15:10:21.584Z,42.88
2023-04-22T15:12:48.631Z,44.04
2023-04-22T15:15:17.063Z,46.06
2023-04-22T15:17:45.165Z,44.19
2023-04-22T15:20:13.061Z,45.00
2023-04-22T15:22:43.737Z,43.40
2023-04-22T15:25:11.323Z,46.04
2023-04-22T15:27:38.902Z,44.84
2023-04-22T15:30:06.878Z,45.96
2023-04-22T15:32:34.036Z,45.75
2023-04-22T15:35:01.080Z,45.67
2023-04-22T15:37:27.949Z,44.01
2023-04-22T15:39:54.754Z,45.68
2023-04-22T15:42:21.524Z,46.61
2023-04-22T15:44:48.310Z,46.27
2023-04-22T15:47:16.820Z,45.62
2023-04-22T15:49:44.127Z,45.46
2023-04-22T15:52:11.161Z,46.14
2023-04-22T15:54:37.811Z,46.48
2023-04-22T15:57:04.527Z,45.50
2023-04-22T15:59:31.294Z,45.82
2023-04-22T16:01:58.183Z,47.03
2023-04-22T16:04:25.120Z,46.24
2023-04-22T16:06:52.408Z,45.61
2023-04-22T16:09:19.485Z,45.78
2023-04-22T16:11:46.289Z,46.21
2023-04-22T16:14:13.110Z,46.19
2023-04-22T16:16:41.497Z,47.88
2023-04-22T16:19:08.673Z,46.79
2023-04-22T16:21:36.275Z,48.13
2023-04-22T16:24:02.977Z,47.34
2023-04-22T16:26:29.784Z,46.97
2023-04-22T16:28:56.497Z,48.31
2023-04-22T16:31:23.394Z,47.56
2023-04-22T16:33:51.855Z,48.00
2023-04-22T16:36:18.705Z,48.46
2023-04-22T16:38:45.739Z,47.19
2023-04-22T16:41:12.461Z,48.77
2023-04-22T16:43:41.067Z,48.30
2023-04-22T16:46:08.292Z,49.10
2023-04-22T16:48:36.114Z,47.63
2023-04-22T16:51:03.038Z,47.51
2023-04-22T16:53:30.693Z,47.33
2023-04-22T16:55:57.627Z,48.74
2023-04-22T16:58:25.014Z,49.29
2023-04-22T17:00:51.936Z,48.05
2023-04-22T17:03:19.087Z,48.67
2023-04-22T17:05:45.948Z,49.80
2023-04-22T17:08:12.866Z,49.12
2023-04-22T17:10:45.559Z,49.62
2023-04-22T17:13:13.640Z,50.85
2023-04-22T17:15:41.632Z,50.39
2023-04-22T17:18:08.562Z,50.17
2023-04-22T17:20:36.156Z,50.17
2023-04-22T17:23:04.157Z,50.82
2023-04-22T17:25:31.438Z,50.63
2023-04-22T17:27:58.173Z,51.15
2023-04-22T17:30:25.058Z,50.80
2023-04-22T17:32:51.967Z,52.02
2023-04-22T17:35:18.957Z,51.02
2023-04-22T17:37:46.353Z,51.35
2023-04-22T17:40:13.224Z,51.16
2023-04-22T17:42:45.956Z,52.04
2023-04-22T17:45:13.269Z,51.49
2023-04-22T17:47:40.017Z,52.05
2023-04-22T17:50:07.846Z,52.26
2023-04-22T17:52:34.619Z,52.65
2023-04-22T17:55:01.466Z,52.64
2023-04-22T17:57:28.568Z,52.55
2023-04-22T17:59:55.537Z,53.42
2023-04-22T18:02:22.824Z,54.26
2023-04-22T18:04:49.823Z,55.25
2023-04-22T18:07:17.223Z,56.04
2023-04-22T18:09:44.026Z,56.59
2023-04-22T18:12:10.810Z,57.42
2023-04-22T18:14:37.511Z,57.71
2023-04-22T18:17:04.521Z,58.54
2023-04-22T18:19:31.347Z,58.70
2023-04-22T18:22:00.267Z,58.99
2023-04-22T18:24:28.380Z,59.31
2023-04-22T18:26:55.166Z,59.05
2023-04-22T18:29:22.048Z,59.84
2023-04-22T18:31:48.800Z,60.05
2023-04-22T18:34:16.018Z,60.04
2023-04-22T18:36:42.912Z,61.19
2023-04-22T18:39:11.003Z,61.96
2023-04-22T18:41:40.745Z,61.14
2023-04-22T18:44:07.606Z,62.26
2023-04-22T18:46:34.400Z,62.19
2023-04-22T18:49:01.500Z,62.20
2023-04-22T18:51:30.040Z,60.88
2023-04-22T18:53:57.087Z,61.16
2023-04-22T18:56:23.838Z,60.45
2023-04-22T18:58:50.744Z,60.23
2023-04-22T19:01:17.665Z,60.46
2023-04-22T19:03:44.604Z,60.78
2023-04-22T19:06:12.624Z,60.65
2023-04-22T19:08:39.329Z,61.00
2023-04-22T19:11:06.238Z,61.21
2023-04-22T19:13:32.962Z,60.99
2023-04-22T19:16:00.295Z,60.86
2023-04-22T19:18:27.095Z,61.14
2023-04-22T19:20:53.867Z,61.23
2023-04-22T19:23:20.660Z,62.06
2023-04-22T19:25:48.102Z,61.33
2023-04-22T19:28:14.750Z,61.25
2023-04-22T19:30:41.804Z,60.99
2023-04-22T19:33:08.619Z,61.67
2023-04-22T19:35:35.477Z,61.49
2023-04-22T19:38:02.317Z,61.43
2023-04-22T19:40:29.430Z,61.47
2023-04-22T19:42:56.139Z,60.93
2023-04-22T19:45:23.030Z,60.99
2023-04-22T19:47:50.000Z,61.43
2023-04-22T19:50:17.123Z,61.63
2023-04-22T19:52:46.089Z,61.20
2023-04-22T19:55:13.390Z,61.23
2023-04-22T19:57:43.373Z,61.79
2023-04-22T20:00:11.660Z,61.65
2023-04-22T20:02:39.461Z,61.92
2023-04-22T20:05:06.657Z,61.89
2023-04-22T20:07:34.153Z,61.72
2023-04-22T20:10:02.522Z,62.40
2023-04-22T20:12:29.555Z,62.57
2023-04-22T20:14:58.093Z,62.84
2023-04-22T20:17:26.103Z,63.29
2023-04-22T20:19:54.071Z,63.30
2023-04-22T20:22:27.529Z,63.58
2023-04-22T20:25:04.215Z,63.93
2023-04-22T20:27:32.569Z,64.12
2023-04-22T20:30:01.125Z,63.84
2023-04-22T20:32:29.300Z,64.85
2023-04-22T20:34:56.497Z,64.98
2023-04-22T20:37:24.769Z,65.09
2023-04-22T20:39:52.927Z,65.35
2023-04-22T20:42:22.024Z,65.56
2023-04-22T20:44:48.730Z,66.53
2023-04-22T20:47:16.693Z,66.72
2023-04-22T20:49:43.986Z,66.71
2023-04-22T20:52:12.322Z,66.26
2023-04-22T20:54:39.887Z,66.93
2023-04-22T20:57:07.700Z,66.83
2023-04-22T20:59:35.607Z,66.57
2023-04-22T21:02:04.368Z,66.90
2023-04-22T21:04:32.591Z,65.84
2023-04-22T21:07:03.980Z,65.45
2023-04-22T21:09:32.638Z,64.47
2023-04-22T21:11:59.789Z,64.72
2023-04-22T21:14:27.072Z,65.24
2023-04-22T21:17:02.161Z,64.40
2023-04-22T21:19:35.678Z,64.62
2023-04-22T21:22:06.311Z,64.91
2023-04-22T21:24:35.097Z,66.28
2023-04-22T21:27:02.252Z,66.36
2023-04-22T21:29:29.373Z,67.79
2023-04-22T21:32:08.197Z,67.96
2023-04-22T21:34:36.600Z,68.14
2023-04-22T21:37:05.422Z,68.09
2023-04-22T21:39:32.221Z,69.13
2023-04-22T21:41:58.957Z,69.68
2023-04-22T21:44:25.788Z,69.65
2023-04-22T21:46:52.520Z,69.26
2023-04-22T21:49:20.708Z,69.17
2023-04-22T21:51:48.060Z,69.69
2023-04-22T21:54:14.824Z,69.91
2023-04-22T21:56:41.848Z,70.12
2023-04-22T21:59:08.493Z,70.65
2023-04-22T22:01:35.386Z,70.39
2023-04-22T22:04:03.118Z,70.97
2023-04-22T22:06:30.625Z,70.86
2023-04-22T22:08:57.439Z,70.90
2023-04-22T22:11:30.835Z,70.51
2023-04-22T22:13:58.393Z,70.55
2023-04-22T22:16:25.871Z,70.88
2023-04-22T22:18:52.785Z,70.77
2023-04-22T22:21:19.735Z,70.73
2023-04-22T22:23:46.405Z,71.22
2023-04-22T22:26:13.392Z,71.46
2023-04-22T22:28:40.537Z,71.67
2023-04-22T22:31:08.266Z,71.84
2023-04-22T22:33:35.280Z,72.54
2023-04-22T22:36:02.380Z,74.00
2023-04-22T22:38:29.141Z,74.13
2023-04-22T22:40:56.042Z,73.18
2023-04-22T22:43:22.826Z,74.43
2023-04-22T22:45:49.592Z,72.97
2023-04-22T22:48:16.602Z,73.02
2023-04-22T22:50:43.880Z,72.37
2023-04-22T22:53:10.633Z,71.19
2023-04-22T22:55:37.390Z,71.14
2023-04-22T22:58:04.197Z,70.96
2023-04-22T23:00:30.910Z,71.44
2023-04-22T23:02:58.086Z,71.29
2023-04-22T23:05:24.883Z,71.19
2023-04-22T23:07:51.660Z,71.54
2023-04-22T23:10:18.346Z,72.60
2023-04-22T23:12:45.216Z,74.90
2023-04-22T23:15:12.077Z,74.76
2023-04-22T23:17:39.083Z,75.08
2023-04-22T23:20:09.472Z,75.87
2023-04-22T23:22:39.018Z,74.77
2023-04-22T23:25:07.025Z,74.62
2023-04-22T23:27:34.504Z,74.40
2023-04-22T23:30:01.663Z,73.83
2023-04-22T23:32:32.471Z,73.44
2023-04-22T23:35:00.835Z,74.25
2023-04-22T23:37:29.023Z,74.35
2023-04-22T23:39:55.912Z,74.01
2023-04-22T23:42:22.649Z,73.94
2023-04-22T23:44:49.254Z,73.68
2023-04-22T23:47:16.054Z,74.52
2023-04-22T23:49:42.856Z,74.90
2023-04-22T23:52:10.547Z,73.67
2023-04-22T23:54:37.445Z,74.79
2023-04-22T23:57:04.398Z,74.16
2023-04-22T23:59:31.429Z,74.44
